Time;durP1;ratioP1;P1;durP2;ratioP2;P2;SDS_P1;SDS_P2;PMS_P1;PMS_P2;Temp;Humidity;BMP_temperature;BMP_pressure;BME280_temperature;BME280_humidity;BME280_pressure;Samples;Min_cycle;Max_cycle;Signal;HPM_P1;HPM_P2
2022/01/03 00:01:16;;;;;;;8.63;2.00;;;8.70;99.90;;;;;;5025047;28;20486;-75
2022/01/03 00:03:42;;;;;;;8.95;1.60;;;8.70;99.90;;;;;;5029377;28;20045;-72
2022/01/03 00:06:08;;;;;;;7.00;1.50;;;8.80;99.90;;;;;;5029201;28;20057;-70
2022/01/03 00:08:33;;;;;;;13.57;2.45;;;8.80;99.90;;;;;;5025868;28;20057;-73
2022/01/03 00:10:59;;;;;;;8.98;2.03;;;8.90;99.90;;;;;;5024257;28;20045;-74
2022/01/03 00:13:25;;;;;;;11.52;2.17;;;8.80;99.90;;;;;;5028031;28;20139;-73
2022/01/03 00:15:52;;;;;;;6.40;1.98;;;8.90;99.90;;;;;;5024405;28;20057;-71
2022/01/03 00:18:18;;;;;;;11.40;2.30;;;8.90;99.90;;;;;;5025511;28;20082;-72
2022/01/03 00:20:56;;;;;;;8.13;1.98;;;8.90;99.90;;;;;;5025123;28;20494;-74
2022/01/03 00:23:25;;;;;;;11.13;2.38;;;9.00;99.90;;;;;;5025353;28;20391;-74
2022/01/03 00:25:57;;;;;;;10.25;2.15;;;9.00;99.90;;;;;;5018227;28;20461;-72
2022/01/03 00:28:25;;;;;;;12.00;2.08;;;9.10;99.90;;;;;;5021635;28;20477;-72
2022/01/03 00:30:55;;;;;;;15.57;3.15;;;9.10;99.90;;;;;;5027280;28;20493;-74
2022/01/03 00:33:22;;;;;;;11.23;2.65;;;9.10;99.90;;;;;;5013939;28;20051;-73
2022/01/03 00:35:53;;;;;;;15.13;3.17;;;9.20;99.90;;;;;;5038164;28;20155;-73
2022/01/03 00:38:20;;;;;;;17.58;3.25;;;9.20;99.90;;;;;;5027627;28;20128;-71
2022/01/03 00:40:46;;;;;;;15.57;2.63;;;9.60;99.90;;;;;;5025350;28;20049;-72
2022/01/03 00:43:14;;;;;;;14.60;3.33;;;9.30;99.90;;;;;;5024491;28;20466;-72
2022/01/03 00:45:40;;;;;;;16.75;3.45;;;9.30;99.90;;;;;;5032996;28;20099;-73
2022/01/03 00:48:10;;;;;;;20.42;3.17;;;9.30;99.90;;;;;;5024254;28;20038;-74
2022/01/03 00:50:36;;;;;;;9.73;2.83;;;9.30;99.90;;;;;;5026105;28;20412;-71
2022/01/03 00:53:03;;;;;;;14.00;3.85;;;9.30;99.90;;;;;;5007240;28;20098;-72
2022/01/03 00:55:29;;;;;;;19.30;3.38;;;9.20;99.90;;;;;;5007859;28;20064;-74
2022/01/03 00:58:09;;;;;;;17.58;2.88;;;9.30;99.90;;;;;;5023858;28;20037;-72
2022/01/03 01:00:39;;;;;;;15.82;2.53;;;9.20;99.90;;;;;;5023902;28;20045;-72
2022/01/03 01:03:14;;;;;;;16.15;2.97;;;9.20;99.90;;;;;;5025082;28;20064;-74
2022/01/03 01:05:43;;;;;;;17.02;2.72;;;9.20;99.90;;;;;;5001003;28;20405;-71
2022/01/03 01:08:09;;;;;;;14.95;3.47;;;9.20;99.90;;;;;;5035847;28;20135;-77
2022/01/03 01:10:38;;;;;;;16.83;3.42;;;9.30;99.90;;;;;;5026619;28;20045;-70
2022/01/03 01:13:07;;;;;;;24.27;3.97;;;9.30;99.90;;;;;;5028408;28;20045;-73
2022/01/03 01:15:34;;;;;;;15.35;3.40;;;9.30;99.90;;;;;;5017000;28;20482;-72
2022/01/03 01:18:03;;;;;;;15.07;2.75;;;9.30;99.90;;;;;;5023842;28;20052;-75
2022/01/03 01:20:30;;;;;;;16.23;2.95;;;9.30;99.90;;;;;;5006788;28;20053;-72
2022/01/03 01:22:56;;;;;;;16.27;3.22;;;9.30;99.90;;;;;;5034967;28;20044;-70
2022/01/03 01:25:27;;;;;;;14.90;2.97;;;9.30;99.90;;;;;;5034783;28;20091;-74
2022/01/03 01:27:56;;;;;;;20.80;4.13;;;9.30;99.90;;;;;;5017079;28;20510;-72
2022/01/03 01:30:27;;;;;;;23.08;3.78;;;9.30;99.90;;;;;;5016688;28;20041;-73
2022/01/03 01:33:06;;;;;;;20.23;3.55;;;9.30;99.90;;;;;;5000186;28;20052;-74
2022/01/03 01:35:47;;;;;;;15.65;3.30;;;9.30;99.90;;;;;;5030979;28;20055;-71
2022/01/03 01:38:16;;;;;;;19.35;3.40;;;9.40;99.90;;;;;;5027833;28;20498;-77
2022/01/03 01:40:51;;;;;;;19.80;3.72;;;9.40;99.90;;;;;;5031311;28;20544;-71
2022/01/03 01:43:41;;;;;;;13.30;2.90;;;9.40;99.90;;;;;;5023938;28;20097;-72
2022/01/03 01:46:13;;;;;;;18.45;3.67;;;9.40;99.90;;;;;;5022266;28;20041;-72
2022/01/03 01:48:42;;;;;;;13.85;3.00;;;9.40;99.90;;;;;;5034109;28;20084;-71
2022/01/03 01:51:10;;;;;;;17.25;3.92;;;9.40;99.90;;;;;;5027407;28;20036;-72
2022/01/03 01:53:55;;;;;;;16.33;2.72;;;9.40;99.90;;;;;;5034203;28;20041;-70
2022/01/03 01:56:25;;;;;;;21.70;3.72;;;9.40;99.90;;;;;;5029669;28;20136;-71
2022/01/03 01:59:36;;;;;;;20.33;3.45;;;9.40;99.90;;;;;;5024990;28;20378;-74
2022/01/03 02:02:08;;;;;;;19.98;4.00;;;9.50;99.90;;;;;;5016783;28;20088;-70
2022/01/03 02:04:46;;;;;;;15.18;2.90;;;9.30;99.90;;;;;;5027436;28;20139;-72
2022/01/03 02:07:40;;;;;;;13.63;2.83;;;9.30;99.90;;;;;;5025601;28;20048;-71
2022/01/03 02:10:12;;;;;;;18.05;3.65;;;9.30;99.90;;;;;;5048998;28;20049;-71
2022/01/03 02:12:43;;;;;;;19.80;3.50;;;9.30;99.90;;;;;;5019923;28;20111;-71
2022/01/03 02:15:13;;;;;;;18.00;3.67;;;9.30;99.90;;;;;;5025413;28;20052;-73
2022/01/03 02:17:40;;;;;;;12.85;2.90;;;9.60;99.90;;;;;;5032836;28;20176;-71
2022/01/03 02:20:13;;;;;;;21.65;2.67;;;9.30;99.90;;;;;;5014976;28;20040;-71
2022/01/03 02:22:41;;;;;;;15.48;3.20;;;9.30;99.90;;;;;;5022406;28;20144;-71
2022/01/03 02:25:09;;;;;;;19.02;2.92;;;9.30;99.90;;;;;;5025978;28;21727;-75
2022/01/03 02:27:36;;;;;;;18.70;3.90;;;9.30;99.90;;;;;;5032969;28;20045;-71
2022/01/03 02:30:08;;;;;;;17.10;3.13;;;9.20;99.90;;;;;;5024353;28;20068;-74
2022/01/03 02:32:33;;;;;;;17.77;3.45;;;9.20;99.90;;;;;;5022435;28;20234;-74
2022/01/03 02:34:59;;;;;;;17.08;3.58;;;9.20;99.90;;;;;;5016696;28;20083;-71
2022/01/03 02:37:25;;;;;;;21.92;3.90;;;9.50;99.90;;;;;;5033544;28;20045;-71
2022/01/03 02:39:52;;;;;;;18.80;2.63;;;9.10;99.90;;;;;;5033023;28;20049;-71
2022/01/03 02:42:23;;;;;;;21.08;3.00;;;9.10;99.90;;;;;;5022212;28;20084;-71
2022/01/03 02:45:00;;;;;;;25.00;3.85;;;9.00;99.90;;;;;;5022885;28;20124;-73
2022/01/03 02:47:26;;;;;;;15.13;3.38;;;9.00;99.90;;;;;;5035281;28;20537;-71
2022/01/03 02:49:51;;;;;;;18.27;2.95;;;8.90;99.90;;;;;;5018691;28;20085;-70
2022/01/03 02:52:17;;;;;;;15.13;4.25;;;8.90;99.90;;;;;;5024756;28;20422;-73
2022/01/03 02:54:43;;;;;;;20.25;3.70;;;8.90;99.90;;;;;;5033356;28;20072;-74
2022/01/03 02:57:09;;;;;;;17.83;3.42;;;8.80;99.90;;;;;;5025078;28;20041;-73
2022/01/03 02:59:34;;;;;;;17.75;3.88;;;8.90;99.90;;;;;;5025716;28;20063;-72
2022/01/03 03:02:00;;;;;;;16.25;2.67;;;8.90;99.90;;;;;;5019827;28;20072;-70
2022/01/03 03:04:26;;;;;;;17.00;2.83;;;8.90;99.90;;;;;;5006539;28;20041;-73
2022/01/03 03:06:51;;;;;;;22.30;3.45;;;8.90;99.90;;;;;;5038500;28;20056;-73
2022/01/03 03:09:20;;;;;;;16.55;2.72;;;8.90;99.90;;;;;;5032541;28;20046;-71
2022/01/03 03:11:45;;;;;;;19.48;3.80;;;8.90;99.90;;;;;;5025612;28;20048;-72
2022/01/03 03:14:11;;;;;;;12.32;2.40;;;8.90;99.90;;;;;;5016660;28;20049;-72
2022/01/03 03:16:36;;;;;;;16.20;3.42;;;8.90;99.90;;;;;;5004434;28;20502;-70
2022/01/03 03:19:03;;;;;;;17.10;3.00;;;8.80;99.90;;;;;;5025156;28;20136;-71
2022/01/03 03:21:30;;;;;;;19.90;4.03;;;8.80;99.90;;;;;;5025220;28;20040;-71
2022/01/03 03:23:56;;;;;;;20.15;3.60;;;8.80;99.90;;;;;;5025648;28;20515;-73
2022/01/03 03:26:22;;;;;;;11.00;3.25;;;8.70;99.90;;;;;;5023000;28;20063;-72
2022/01/03 03:28:47;;;;;;;18.85;3.85;;;8.70;99.90;;;;;;5029134;28;20038;-72
2022/01/03 03:31:13;;;;;;;19.65;3.67;;;8.70;99.90;;;;;;5042678;28;20041;-73
2022/01/03 03:33:38;;;;;;;17.55;3.42;;;8.70;99.90;;;;;;5031178;28;20041;-71
2022/01/03 03:36:05;;;;;;;22.15;3.70;;;8.70;99.90;;;;;;5037018;28;20075;-74
2022/01/03 03:38:31;;;;;;;22.42;3.60;;;8.70;99.90;;;;;;5037107;28;20405;-73
2022/01/03 03:40:58;;;;;;;24.30;4.22;;;8.80;99.90;;;;;;5046235;28;20040;-72
2022/01/03 03:43:24;;;;;;;16.67;3.22;;;8.80;99.90;;;;;;5028072;28;20443;-74
2022/01/03 03:45:50;;;;;;;14.15;3.10;;;8.80;99.90;;;;;;5025545;28;20054;-74
2022/01/03 03:48:16;;;;;;;19.20;4.30;;;8.90;99.90;;;;;;5033598;28;20056;-72
2022/01/03 03:50:42;;;;;;;18.83;3.65;;;8.90;99.90;;;;;;5029809;28;20073;-72
2022/01/03 03:53:08;;;;;;;21.52;3.50;;;8.90;99.90;;;;;;5026694;28;20080;-72
2022/01/03 03:55:34;;;;;;;17.55;3.40;;;8.90;99.90;;;;;;5028905;28;20055;-71
2022/01/03 03:58:01;;;;;;;22.10;3.65;;;8.90;99.90;;;;;;5031143;28;20374;-71
2022/01/03 04:00:27;;;;;;;15.70;3.63;;;9.00;99.90;;;;;;5034752;28;20053;-72
2022/01/03 04:02:53;;;;;;;16.92;3.00;;;9.00;99.90;;;;;;5025506;28;20041;-71
2022/01/03 04:05:19;;;;;;;19.63;3.85;;;9.00;99.90;;;;;;5028325;28;20052;-72
2022/01/03 04:07:44;;;;;;;17.60;3.80;;;9.00;99.90;;;;;;5021136;28;20054;-72
2022/01/03 04:10:15;;;;;;;17.45;3.05;;;9.00;99.90;;;;;;5009429;28;20050;-71
2022/01/03 04:12:42;;;;;;;17.75;5.07;;;9.00;99.90;;;;;;5013671;28;20045;-74
2022/01/03 04:15:08;;;;;;;22.13;3.90;;;9.00;99.90;;;;;;5006674;28;20078;-69
2022/01/03 04:17:34;;;;;;;20.38;3.33;;;9.10;99.90;;;;;;5025824;28;20116;-71
2022/01/03 04:20:00;;;;;;;21.40;4.53;;;9.10;99.90;;;;;;5011178;28;20498;-76
2022/01/03 04:22:25;;;;;;;22.65;4.82;;;9.10;99.90;;;;;;5005447;28;20038;-70
2022/01/03 04:24:51;;;;;;;18.55;3.33;;;9.10;99.90;;;;;;5003754;28;20099;-71
2022/01/03 04:27:16;;;;;;;24.00;4.13;;;9.10;99.90;;;;;;5009193;28;20069;-72
2022/01/03 04:29:42;;;;;;;21.42;4.20;;;9.20;99.90;;;;;;5022572;28;20046;-71
2022/01/03 04:32:08;;;;;;;24.98;4.25;;;9.20;99.90;;;;;;5005620;28;20049;-73
2022/01/03 04:34:33;;;;;;;28.83;3.95;;;9.20;99.90;;;;;;5007221;28;20091;-71
2022/01/03 04:36:59;;;;;;;23.00;3.80;;;9.20;99.90;;;;;;4998762;28;20056;-70
2022/01/03 04:39:25;;;;;;;22.95;4.35;;;9.20;99.90;;;;;;5005531;28;20049;-72
2022/01/03 04:41:50;;;;;;;19.55;3.42;;;9.20;99.90;;;;;;5010524;28;20049;-71
2022/01/03 04:44:16;;;;;;;30.42;4.68;;;9.20;99.90;;;;;;5002969;28;20042;-71
2022/01/03 04:46:42;;;;;;;19.52;3.83;;;9.20;99.90;;;;;;5013319;28;20128;-73
2022/01/03 04:49:07;;;;;;;21.13;3.80;;;9.20;99.90;;;;;;5003282;28;20084;-74
2022/01/03 04:51:33;;;;;;;21.73;4.03;;;9.30;99.90;;;;;;4986286;28;20140;-73
2022/01/03 04:53:59;;;;;;;25.52;4.03;;;9.30;99.90;;;;;;5007963;28;20129;-71
2022/01/03 04:56:28;;;;;;;21.73;4.57;;;9.30;99.90;;;;;;5009172;28;20576;-73
2022/01/03 04:58:55;;;;;;;19.33;4.50;;;9.30;99.90;;;;;;5012931;28;20058;-71
2022/01/03 05:01:21;;;;;;;22.48;4.15;;;9.30;99.90;;;;;;5011045;28;20470;-71
2022/01/03 05:03:46;;;;;;;20.10;3.63;;;9.30;99.90;;;;;;5039231;28;20045;-73
2022/01/03 05:06:13;;;;;;;26.20;3.67;;;9.20;99.90;;;;;;4998419;28;20480;-74
2022/01/03 05:08:39;;;;;;;21.23;4.07;;;9.30;99.90;;;;;;5005563;28;20097;-71
2022/01/03 05:11:05;;;;;;;28.27;4.63;;;9.30;99.90;;;;;;5012031;28;20068;-74
2022/01/03 05:13:31;;;;;;;18.25;4.88;;;9.20;99.90;;;;;;5009516;28;20506;-70
2022/01/03 05:15:59;;;;;;;24.20;4.22;;;9.20;99.90;;;;;;5014955;28;20341;-72
2022/01/03 05:18:25;;;;;;;22.90;4.47;;;9.20;99.90;;;;;;4999784;28;20053;-71
2022/01/03 05:20:50;;;;;;;22.08;4.10;;;9.20;99.90;;;;;;5013914;28;20407;-71
2022/01/03 05:23:16;;;;;;;18.92;4.03;;;9.20;99.90;;;;;;5004947;28;20183;-71
2022/01/03 05:25:42;;;;;;;24.35;4.32;;;9.20;99.90;;;;;;5007529;28;20110;-73
2022/01/03 05:28:08;;;;;;;23.40;4.50;;;9.20;99.90;;;;;;5003550;28;20558;-73
2022/01/03 05:30:36;;;;;;;20.55;4.03;;;9.30;99.90;;;;;;5005174;28;20057;-70
2022/01/03 05:33:04;;;;;;;18.30;4.18;;;9.30;99.90;;;;;;5023212;28;20517;-73
2022/01/03 05:35:30;;;;;;;17.38;3.95;;;9.30;99.90;;;;;;5023974;28;20153;-70
2022/01/03 05:37:56;;;;;;;21.20;3.85;;;9.30;99.90;;;;;;5005158;28;20533;-69
2022/01/03 05:40:24;;;;;;;19.13;4.07;;;9.20;99.90;;;;;;5004596;28;20060;-70
2022/01/03 05:42:50;;;;;;;26.10;4.55;;;9.20;99.90;;;;;;5006960;28;20042;-71
2022/01/03 05:45:16;;;;;;;22.98;4.45;;;9.20;99.90;;;;;;4993173;28;20060;-69
2022/01/03 05:47:45;;;;;;;19.17;4.05;;;9.20;99.90;;;;;;4999533;28;20050;-73
2022/01/03 05:50:16;;;;;;;24.45;4.63;;;9.20;99.90;;;;;;5008428;28;20111;-73
2022/01/03 05:52:42;;;;;;;29.30;4.38;;;9.10;99.90;;;;;;5014002;28;20509;-70
2022/01/03 05:55:08;;;;;;;21.90;4.47;;;9.10;99.90;;;;;;5004620;28;20042;-71
2022/01/03 05:57:34;;;;;;;25.63;4.45;;;9.10;99.90;;;;;;5004452;28;20097;-73
2022/01/03 06:00:02;;;;;;;15.65;4.05;;;9.10;99.90;;;;;;4988664;28;20084;-71
2022/01/03 06:02:31;;;;;;;25.67;4.40;;;9.00;99.90;;;;;;5003395;28;20134;-72
2022/01/03 06:05:00;;;;;;;21.63;4.00;;;8.90;99.90;;;;;;5011808;28;20076;-71
2022/01/03 06:07:26;;;;;;;19.75;4.53;;;8.90;99.90;;;;;;5009784;28;20068;-70
2022/01/03 06:09:52;;;;;;;27.40;5.05;;;8.90;99.90;;;;;;5031930;28;20053;-72
2022/01/03 06:12:18;;;;;;;24.40;4.88;;;9.00;99.90;;;;;;5041570;28;20045;-74
2022/01/03 06:14:45;;;;;;;23.60;5.38;;;9.00;99.90;;;;;;5032033;28;20132;-74
2022/01/03 06:17:11;;;;;;;22.80;5.10;;;9.00;99.90;;;;;;5031828;28;20061;-71
2022/01/03 06:19:38;;;;;;;20.42;3.60;;;9.00;99.90;;;;;;5032211;28;20147;-73
2022/01/03 06:22:07;;;;;;;28.42;5.50;;;9.00;99.90;;;;;;5034334;28;20394;-73
2022/01/03 06:24:33;;;;;;;21.65;4.28;;;8.90;99.90;;;;;;5034652;28;20076;-71
2022/01/03 06:26:58;;;;;;;21.50;4.57;;;8.90;99.90;;;;;;5032037;28;20057;-73
2022/01/03 06:29:24;;;;;;;24.10;5.25;;;8.80;99.90;;;;;;5032233;28;20045;-72
2022/01/03 06:31:50;;;;;;;29.40;4.60;;;8.80;99.90;;;;;;5031343;28;20046;-70
2022/01/03 06:34:17;;;;;;;26.92;4.28;;;8.70;99.90;;;;;;5026781;28;20095;-73
2022/01/03 06:36:43;;;;;;;25.50;5.55;;;8.70;99.90;;;;;;5031086;28;20042;-73
2022/01/03 06:39:11;;;;;;;28.50;4.85;;;8.70;99.90;;;;;;5016182;28;20041;-73
2022/01/03 06:41:37;;;;;;;23.45;4.40;;;8.70;99.90;;;;;;5034797;28;20134;-74
2022/01/03 06:44:03;;;;;;;25.90;4.15;;;8.70;99.90;;;;;;5033790;28;20052;-72
2022/01/03 06:46:29;;;;;;;27.50;4.40;;;8.70;99.90;;;;;;5032698;28;20543;-72
2022/01/03 06:48:54;;;;;;;22.15;4.70;;;8.70;99.90;;;;;;5037507;28;20044;-71
2022/01/03 06:51:20;;;;;;;20.13;4.35;;;8.70;99.90;;;;;;5051592;28;20106;-73
2022/01/03 06:53:54;;;;;;;18.48;4.38;;;8.70;99.90;;;;;;5031660;28;20489;-72
2022/01/03 06:56:20;;;;;;;26.23;4.65;;;8.70;99.90;;;;;;5035849;28;20053;-73
2022/01/03 06:58:46;;;;;;;25.17;4.03;;;8.70;99.90;;;;;;5035582;28;20202;-71
2022/01/03 07:01:12;;;;;;;34.50;4.82;;;8.70;99.90;;;;;;5034559;28;20052;-75
2022/01/03 07:03:37;;;;;;;22.58;4.32;;;8.70;99.90;;;;;;5052952;28;20052;-74
2022/01/03 07:06:03;;;;;;;20.17;4.63;;;8.70;99.90;;;;;;5034359;28;20052;-72
2022/01/03 07:08:29;;;;;;;28.65;4.50;;;8.70;99.90;;;;;;5034948;28;20045;-72
2022/01/03 07:10:54;;;;;;;20.38;3.97;;;9.20;99.90;;;;;;5034729;28;20469;-72
2022/01/03 07:13:20;;;;;;;23.38;4.68;;;8.70;99.90;;;;;;5035789;28;20045;-73
2022/01/03 07:18:56;;;;;;;23.55;5.05;;;8.60;99.90;;;;;;4991812;28;20042;-71
2022/01/03 07:21:23;;;;;;;23.10;4.75;;;8.60;99.90;;;;;;5009615;28;20206;-72
2022/01/03 07:23:48;;;;;;;26.90;5.00;;;8.60;99.90;;;;;;5052398;28;20060;-74
2022/01/03 07:26:14;;;;;;;30.25;4.88;;;8.60;99.90;;;;;;5033598;28;20072;-73
2022/01/03 07:28:39;;;;;;;33.65;4.80;;;8.50;99.90;;;;;;5027818;28;20056;-73
2022/01/03 07:31:05;;;;;;;31.52;5.35;;;8.50;99.90;;;;;;5028794;28;20146;-68
2022/01/03 07:33:30;;;;;;;27.02;5.03;;;8.60;99.90;;;;;;5046097;28;20122;-71
2022/01/03 07:35:56;;;;;;;28.20;5.53;;;8.60;99.90;;;;;;5016921;28;20049;-69
2022/01/03 07:38:21;;;;;;;27.13;5.30;;;8.60;99.90;;;;;;5015774;28;20486;-68
2022/01/03 07:40:47;;;;;;;23.52;4.68;;;8.60;99.90;;;;;;5021678;28;20516;-68
2022/01/03 07:43:13;;;;;;;22.20;4.80;;;8.60;99.90;;;;;;5018382;28;20378;-67
2022/01/03 07:45:38;;;;;;;21.17;4.72;;;8.70;99.90;;;;;;5033401;28;20041;-69
2022/01/03 07:48:04;;;;;;;25.52;5.28;;;8.70;99.90;;;;;;5033243;28;20057;-69
2022/01/03 07:50:30;;;;;;;25.50;4.40;;;8.70;99.90;;;;;;5034427;28;20056;-69
2022/01/03 07:53:00;;;;;;;31.52;4.50;;;8.80;99.90;;;;;;5027908;28;20116;-69
2022/01/03 07:55:26;;;;;;;25.58;4.50;;;8.80;99.90;;;;;;5014809;28;20057;-70
2022/01/03 07:57:53;;;;;;;26.42;5.95;;;8.80;99.90;;;;;;5014662;28;20053;-71
2022/01/03 08:00:19;;;;;;;26.30;5.25;;;8.90;99.90;;;;;;5014578;28;20510;-68
2022/01/03 08:02:45;;;;;;;28.60;5.50;;;8.90;99.90;;;;;;5024696;28;20048;-68
2022/01/03 08:05:15;;;;;;;24.45;4.45;;;9.00;99.90;;;;;;5034328;28;20412;-71
2022/01/03 08:07:42;;;;;;;30.75;5.60;;;9.00;99.90;;;;;;5051681;28;20081;-69
2022/01/03 08:10:09;;;;;;;23.23;4.88;;;9.00;99.90;;;;;;5034685;28;20041;-68
2022/01/03 08:12:37;;;;;;;24.17;4.75;;;9.00;99.90;;;;;;5034202;28;20490;-68
2022/01/03 08:15:04;;;;;;;31.15;4.38;;;9.10;99.90;;;;;;5035904;28;20076;-69
2022/01/03 08:17:30;;;;;;;21.25;5.28;;;9.00;99.90;;;;;;5027859;28;20041;-69
2022/01/03 08:19:55;;;;;;;24.38;4.90;;;9.00;99.90;;;;;;5038329;28;20041;-68
2022/01/03 08:22:21;;;;;;;32.72;6.03;;;9.20;99.90;;;;;;5038053;28;20057;-68
2022/01/03 08:24:47;;;;;;;27.85;5.05;;;;;;;;;;5021517;28;20045;-70
2022/01/03 08:27:12;;;;;;;26.90;5.43;;;9.30;99.90;;;;;;5021699;28;20044;-69
2022/01/03 08:29:38;;;;;;;19.15;3.75;;;9.30;99.90;;;;;;5055529;28;20519;-68
2022/01/03 08:32:05;;;;;;;29.45;5.18;;;9.30;99.90;;;;;;5029803;28;20099;-68
2022/01/03 08:34:32;;;;;;;24.23;5.65;;;9.30;99.90;;;;;;5023275;28;20045;-69
2022/01/03 08:37:01;;;;;;;25.50;5.05;;;9.30;99.90;;;;;;5020431;28;20041;-68
2022/01/03 08:39:27;;;;;;;29.60;5.43;;;9.40;99.90;;;;;;5020873;28;20117;-70
2022/01/03 08:41:53;;;;;;;28.67;4.88;;;;;;;;;;5020496;28;20383;-69
2022/01/03 08:44:19;;;;;;;19.38;4.20;;;9.40;99.90;;;;;;5037011;28;20045;-68
2022/01/03 08:46:46;;;;;;;22.20;3.78;;;9.50;99.90;;;;;;5020555;28;20056;-69
2022/01/03 08:49:13;;;;;;;25.52;4.43;;;9.60;99.90;;;;;;5020397;28;20063;-69
2022/01/03 08:51:38;;;;;;;28.20;4.70;;;9.60;99.90;;;;;;5054992;28;20170;-71
2022/01/03 08:54:04;;;;;;;20.55;4.13;;;9.60;99.90;;;;;;5037241;28;20508;-68
2022/01/03 08:56:30;;;;;;;20.20;4.22;;;9.60;99.90;;;;;;5020871;28;20049;-70
2022/01/03 08:58:56;;;;;;;31.13;4.32;;;9.40;99.90;;;;;;5037381;28;20400;-69
2022/01/03 09:01:24;;;;;;;24.35;4.50;;;9.50;99.90;;;;;;5020576;28;20551;-69
2022/01/03 09:03:50;;;;;;;22.30;4.25;;;9.60;99.90;;;;;;5019418;28;20040;-73
2022/01/03 09:06:19;;;;;;;23.08;4.03;;;9.80;99.90;;;;;;5036946;28;20437;-69
2022/01/03 09:08:48;;;;;;;22.52;3.72;;;9.70;99.90;;;;;;5020680;28;20052;-68
2022/01/03 09:11:14;;;;;;;25.98;4.50;;;9.70;99.90;;;;;;5036779;28;20127;-71
2022/01/03 09:13:40;;;;;;;26.33;4.68;;;9.60;99.90;;;;;;5019577;28;20101;-68
2022/01/03 09:16:07;;;;;;;26.23;4.65;;;9.60;99.90;;;;;;5017016;28;20137;-70
2022/01/03 09:18:38;;;;;;;21.15;4.65;;;9.70;99.90;;;;;;5000785;28;20095;-71
2022/01/03 09:21:06;;;;;;;26.35;4.63;;;9.70;99.90;;;;;;5017130;28;20513;-68
2022/01/03 09:23:36;;;;;;;19.10;3.25;;;9.70;99.90;;;;;;5017084;28;20057;-70
2022/01/03 09:28:51;;;;;;;21.25;4.25;;;9.70;99.90;;;;;;5035963;28;20386;-69
2022/01/03 09:31:33;;;;;;;30.10;4.28;;;9.90;99.90;;;;;;5036435;28;20066;-69
2022/01/03 09:34:02;;;;;;;16.73;3.22;;;9.70;99.90;;;;;;5054429;28;20049;-68
2022/01/03 09:36:29;;;;;;;25.60;4.88;;;9.70;99.90;;;;;;5037010;28;20045;-67
2022/01/03 09:38:55;;;;;;;19.98;4.22;;;9.80;99.90;;;;;;5036148;28;20051;-68
2022/01/03 09:41:25;;;;;;;21.33;4.55;;;9.80;99.90;;;;;;5036196;28;20060;-70
2022/01/03 09:44:04;;;;;;;24.20;4.30;;;9.80;99.90;;;;;;5036442;28;20462;-70
2022/01/03 09:46:39;;;;;;;25.20;5.57;;;9.80;99.90;;;;;;5036254;28;20366;-68
2022/01/03 09:49:10;;;;;;;20.85;4.47;;;9.80;99.90;;;;;;5054180;28;20060;-69
2022/01/03 09:51:37;;;;;;;22.95;3.92;;;9.90;99.90;;;;;;5036239;28;20045;-69
2022/01/03 09:54:08;;;;;;;20.23;3.63;;;9.80;99.90;;;;;;5036674;28;20397;-72
2022/01/03 09:56:36;;;;;;;23.70;4.72;;;9.80;99.90;;;;;;5034191;28;20053;-69
2022/01/03 09:59:05;;;;;;;24.33;4.20;;;9.90;99.90;;;;;;5016682;28;20045;-67
2022/01/03 10:01:31;;;;;;;24.55;4.72;;;9.90;99.90;;;;;;5015411;28;20187;-69
2022/01/03 10:03:56;;;;;;;21.58;4.30;;;9.90;99.90;;;;;;5000255;28;20128;-69
2022/01/03 10:06:24;;;;;;;23.08;4.63;;;9.90;99.90;;;;;;5041919;28;20057;-67
2022/01/03 10:08:49;;;;;;;25.42;4.65;;;9.90;99.90;;;;;;5016026;28;20049;-68
2022/01/03 10:11:15;;;;;;;22.67;4.25;;;10.00;99.90;;;;;;5033713;28;20056;-69
2022/01/03 10:13:41;;;;;;;20.73;4.10;;;10.00;99.90;;;;;;5016493;28;20125;-66
2022/01/03 10:16:07;;;;;;;20.85;3.95;;;10.00;99.90;;;;;;5015648;28;20128;-69
2022/01/03 10:18:33;;;;;;;27.58;4.85;;;10.00;99.90;;;;;;5015844;28;20053;-68
2022/01/03 10:21:00;;;;;;;22.02;4.35;;;10.00;99.90;;;;;;5003947;28;20049;-68
2022/01/03 10:23:26;;;;;;;22.92;3.72;;;10.00;99.90;;;;;;5035530;28;20095;-68
2022/01/03 10:25:52;;;;;;;27.58;4.00;;;10.00;99.90;;;;;;5035973;28;20053;-69
2022/01/03 10:28:28;;;;;;;21.90;4.18;;;10.10;99.90;;;;;;5053978;28;20503;-72
2022/01/03 10:30:54;;;;;;;15.63;3.70;;;10.10;99.90;;;;;;5035035;28;20064;-68
2022/01/03 10:33:22;;;;;;;19.60;3.83;;;10.10;99.90;;;;;;5035634;28;20057;-69
2022/01/03 10:35:53;;;;;;;22.95;4.10;;;10.10;99.90;;;;;;5034923;28;20132;-70
2022/01/03 10:38:37;;;;;;;21.88;3.67;;;10.10;99.90;;;;;;5052894;28;20516;-69
2022/01/03 10:41:14;;;;;;;25.10;4.60;;;10.10;99.90;;;;;;5035071;28;20476;-67
2022/01/03 10:43:42;;;;;;;24.05;4.25;;;10.10;99.90;;;;;;5053198;28;20536;-68
2022/01/03 10:46:25;;;;;;;20.40;4.60;;;10.10;99.90;;;;;;5034789;28;20516;-68
2022/01/03 10:48:55;;;;;;;23.10;4.10;;;10.10;99.90;;;;;;5053377;28;20472;-69
2022/01/03 10:51:26;;;;;;;24.65;4.25;;;10.10;99.90;;;;;;5032543;28;20049;-69
2022/01/03 10:53:54;;;;;;;19.80;3.80;;;10.10;99.90;;;;;;5052289;28;20190;-67
2022/01/03 10:56:32;;;;;;;19.25;3.97;;;10.00;99.90;;;;;;5034747;28;20045;-68
2022/01/03 10:59:00;;;;;;;22.58;4.43;;;10.00;99.90;;;;;;5030008;28;20145;-68
2022/01/03 11:01:28;;;;;;;23.85;4.82;;;10.10;99.90;;;;;;5032385;28;20053;-69
2022/01/03 11:03:56;;;;;;;20.05;4.00;;;10.10;99.90;;;;;;5035508;28;20048;-69
2022/01/03 11:11:46;;;;;;;16.20;3.10;;;10.20;99.90;;;;;;5034580;28;20053;-70
2022/01/03 11:14:38;;;;;;;25.58;3.90;;;;;;;;;;5052112;28;20044;-69
2022/01/03 11:17:23;;;;;;;22.48;4.13;;;;;;;;;;5032971;28;20044;-70
2022/01/03 11:19:48;;;;;;;19.48;3.47;;;10.40;99.90;;;;;;5034350;28;20064;-69
2022/01/03 11:22:39;;;;;;;20.83;3.88;;;10.40;99.90;;;;;;5034917;28;20503;-69
2022/01/03 11:25:06;;;;;;;23.70;3.63;;;10.50;99.90;;;;;;5018435;28;20179;-68
2022/01/03 11:27:35;;;;;;;20.27;4.18;;;10.50;99.90;;;;;;5034947;28;20507;-69
2022/01/03 11:30:02;;;;;;;15.68;3.65;;;10.50;99.90;;;;;;5031816;28;20175;-69
2022/01/03 11:32:28;;;;;;;16.90;3.95;;;10.50;99.90;;;;;;5034153;28;20504;-68
2022/01/03 11:34:56;;;;;;;18.48;4.25;;;10.50;99.90;;;;;;5033196;28;20049;-68
2022/01/03 11:37:22;;;;;;;22.45;3.55;;;10.50;99.90;;;;;;5015112;28;20135;-69
2022/01/03 11:39:48;;;;;;;24.00;4.50;;;10.40;99.90;;;;;;5030252;28;20076;-68
2022/01/03 11:42:15;;;;;;;16.33;4.18;;;10.40;99.90;;;;;;5015996;28;20045;-68
2022/01/03 11:44:41;;;;;;;24.33;4.10;;;10.40;99.90;;;;;;5053149;28;20040;-68
2022/01/03 11:47:09;;;;;;;20.25;3.47;;;10.40;99.90;;;;;;5033084;28;20058;-69
2022/01/03 11:49:36;;;;;;;23.80;3.97;;;10.40;99.90;;;;;;5035601;28;20051;-68
2022/01/03 11:52:08;;;;;;;15.73;3.80;;;10.50;99.90;;;;;;5021738;28;20131;-69
2022/01/03 11:54:34;;;;;;;23.20;4.65;;;10.50;99.90;;;;;;5038584;28;20060;-70
2022/01/03 11:57:17;;;;;;;26.00;4.75;;;10.50;99.90;;;;;;5037371;28;20128;-68
2022/01/03 12:05:52;;;;;;;;;;;10.50;99.90;;;;;;5018901;28;20053;-68
2022/01/03 12:08:33;;;;;;;15.68;3.45;;;10.50;99.90;;;;;;5013200;28;19951;-68
2022/01/03 12:11:16;;;;;;;23.75;4.57;;;10.40;99.90;;;;;;5015862;28;20061;-70
2022/01/03 12:13:48;;;;;;;20.45;4.57;;;;;;;;;;5018663;28;20058;-65
2022/01/03 12:16:14;;;;;;;20.05;4.05;;;;;;;;;;5017832;28;20061;-69
2022/01/03 12:18:56;;;;;;;24.58;4.82;;;;;;;;;;5017472;28;20136;-66
2022/01/03 12:21:42;;;;;;;19.58;4.82;;;;;;;;;;5017711;28;20562;-68
2022/01/03 12:24:28;;;;;;;20.42;4.03;;;;;;;;;;4987380;28;20050;-66
2022/01/03 12:27:12;;;;;;;25.58;4.60;;;;;;;;;;4998354;28;20069;-66
2022/01/03 12:29:50;;;;;;;26.23;4.60;;;;;;;;;;5015161;28;20077;-67
2022/01/03 12:32:16;;;;;;;17.85;3.47;;;;;;;;;;4998150;28;20133;-68
2022/01/03 12:34:43;;;;;;;21.75;4.45;;;;;;;;;;4998521;28;20130;-69
2022/01/03 12:37:21;;;;;;;20.23;4.28;;;;;;;;;;4998140;28;20060;-68
2022/01/03 12:40:09;;;;;;;19.42;4.03;;;;;;;;;;5011230;28;20065;-68
2022/01/03 12:42:54;;;;;;;24.60;5.20;;;;;;;;;;4998132;28;20444;-67
2022/01/03 12:45:28;;;;;;;19.65;4.03;;;;;;;;;;4997800;28;20061;-67
2022/01/03 12:47:55;;;;;;;22.83;4.18;;;;;;;;;;4997290;28;20144;-67
2022/01/03 12:50:27;;;;;;;19.10;4.32;;;;;;;;;;4998403;28;20478;-67
2022/01/03 12:52:54;;;;;;;23.75;4.72;;;;;;;;;;5008867;28;20061;-69
2022/01/03 12:55:38;;;;;;;21.27;4.03;;;;;;;;;;5034408;28;20053;-68
2022/01/03 12:58:04;;;;;;;24.90;4.65;;;;;;;;;;5014029;28;20206;-68
2022/01/03 13:00:40;;;;;;;21.88;4.82;;;;;;;;;;4997490;28;20137;-68
2022/01/03 13:03:22;;;;;;;18.25;4.15;;;;;;;;;;4998020;28;20050;-68
2022/01/03 13:06:07;;;;;;;26.58;4.68;;;;;;;;;;5000891;28;20042;-68
2022/01/03 13:08:33;;;;;;;23.42;4.20;;;;;;;;;;5050101;28;20057;-68
2022/01/03 13:11:04;;;;;;;16.30;3.60;;;;;;;;;;5037079;28;20048;-68
2022/01/03 13:13:30;;;;;;;21.85;4.18;;;;;;;;;;5020788;28;20045;-68
2022/01/03 13:15:56;;;;;;;23.60;4.50;;;;;;;;;;5035982;28;20084;-67
2022/01/03 13:18:22;;;;;;;25.48;4.50;;;;;;;;;;5027870;28;20046;-66
2022/01/03 13:20:57;;;;;;;20.45;4.68;;;;;;;;;;5050938;28;20057;-66